Time;durP1;ratioP1;P1;durP2;ratioP2;P2;SDS_P1;SDS_P2;PMS_P1;PMS_P2;Temp;Humidity;BMP_temperature;BMP_pressure;BME280_temperature;BME280_humidity;BME280_pressure;Samples;Min_cycle;Max_cycle;Signal;HPM_P1;HPM_P2
2022/02/15 00:01:03;;;;;;;14.20;3.03;;;7.70;99.90;;;;;;6241755;23;20054;-72
2022/02/15 00:03:30;;;;;;;16.02;3.20;;;7.70;99.90;;;;;;6242012;23;20046;-72
2022/02/15 00:05:57;;;;;;;12.35;2.30;;;7.70;99.90;;;;;;6241973;23;20004;-72
2022/02/15 00:08:24;;;;;;;16.83;2.30;;;7.80;99.90;;;;;;6242310;23;20017;-72
2022/02/15 00:10:50;;;;;;;11.40;2.38;;;7.80;99.90;;;;;;6241784;23;20008;-72
2022/02/15 00:13:16;;;;;;;15.50;2.85;;;7.80;99.90;;;;;;6242561;23;20084;-72
2022/02/15 00:15:42;;;;;;;13.82;2.15;;;7.90;99.90;;;;;;6241881;23;20637;-72
2022/02/15 00:18:07;;;;;;;12.00;2.42;;;8.00;99.90;;;;;;6242169;23;20000;-72
2022/02/15 00:20:33;;;;;;;11.18;1.92;;;8.00;99.90;;;;;;6242050;23;20015;-72
2022/02/15 00:22:59;;;;;;;16.65;2.67;;;8.10;99.90;;;;;;6243503;23;20344;-72
2022/02/15 00:25:25;;;;;;;19.40;3.90;;;8.10;99.90;;;;;;6244569;23;20007;-72
2022/02/15 00:27:50;;;;;;;18.30;3.70;;;8.10;99.90;;;;;;6243977;23;20036;-72
2022/02/15 00:30:16;;;;;;;11.18;2.10;;;8.10;99.90;;;;;;6243659;23;20000;-72
2022/02/15 00:32:43;;;;;;;10.48;2.03;;;8.10;99.90;;;;;;6244096;23;20011;-72
2022/02/15 00:35:09;;;;;;;17.40;2.47;;;8.10;99.90;;;;;;6243638;23;20051;-72
2022/02/15 00:37:34;;;;;;;12.90;2.40;;;8.10;99.90;;;;;;6244086;23;20348;-72
2022/02/15 00:40:00;;;;;;;16.10;2.80;;;8.10;99.90;;;;;;6243267;23;20028;-72
2022/02/15 00:42:26;;;;;;;13.85;2.70;;;8.10;99.90;;;;;;6243926;23;20043;-72
2022/02/15 00:44:52;;;;;;;8.75;2.42;;;8.00;99.90;;;;;;6243550;23;20082;-72
2022/02/15 00:47:17;;;;;;;9.10;1.90;;;8.00;99.90;;;;;;6243984;23;20005;-72
2022/02/15 00:49:43;;;;;;;12.80;2.50;;;7.90;99.90;;;;;;6217008;23;20027;-72
2022/02/15 00:52:09;;;;;;;15.70;2.95;;;7.80;99.90;;;;;;6243975;23;20011;-72
2022/02/15 00:54:35;;;;;;;15.93;2.47;;;7.70;99.90;;;;;;6243414;23;20001;-72
2022/02/15 00:57:01;;;;;;;9.48;2.30;;;7.60;99.90;;;;;;6243208;23;20023;-72
2022/02/15 00:59:26;;;;;;;13.30;2.95;;;7.50;99.90;;;;;;6243462;23;20020;-72
2022/02/15 01:01:53;;;;;;;10.73;2.03;;;7.40;99.90;;;;;;6243864;23;20008;-72
2022/02/15 01:04:18;;;;;;;15.73;2.10;;;7.30;99.90;;;;;;6243920;23;20121;-72
2022/02/15 01:06:44;;;;;;;11.85;2.08;;;7.20;99.90;;;;;;6243792;23;20372;-72
2022/02/15 01:09:10;;;;;;;14.45;2.10;;;7.20;99.90;;;;;;6243509;23;20062;-72
2022/02/15 01:11:36;;;;;;;15.60;2.33;;;7.10;99.90;;;;;;6243899;23;20004;-72
2022/02/15 01:14:02;;;;;;;16.85;2.85;;;7.00;99.90;;;;;;6243046;23;20046;-72
2022/02/15 01:16:27;;;;;;;15.48;2.28;;;7.00;99.90;;;;;;6243198;23;20047;-72
2022/02/15 01:18:53;;;;;;;17.30;2.58;;;6.90;99.90;;;;;;6243495;23;20042;-72
2022/02/15 01:21:19;;;;;;;12.73;2.45;;;6.90;99.90;;;;;;6243516;23;20000;-72
2022/02/15 01:23:45;;;;;;;10.50;1.65;;;6.80;99.90;;;;;;6243453;23;20008;-72
2022/02/15 01:26:10;;;;;;;8.50;1.80;;;6.80;99.90;;;;;;6243936;23;20022;-72
2022/02/15 01:28:36;;;;;;;14.95;2.35;;;6.70;99.90;;;;;;6243176;23;20043;-72
2022/02/15 01:31:03;;;;;;;12.20;2.53;;;6.70;99.90;;;;;;6243379;23;20024;-72
2022/02/15 01:33:28;;;;;;;12.38;2.85;;;6.70;99.90;;;;;;6243247;23;20008;-72
2022/02/15 01:35:54;;;;;;;15.52;3.17;;;6.60;99.90;;;;;;6242887;23;20391;-72
2022/02/15 01:38:20;;;;;;;12.60;2.40;;;6.60;99.90;;;;;;6243663;23;20070;-72
2022/02/15 01:40:46;;;;;;;13.57;2.40;;;6.60;99.90;;;;;;6243643;23;20004;-72
2022/02/15 01:43:12;;;;;;;16.55;2.38;;;6.50;99.90;;;;;;6243051;23;20001;-72
2022/02/15 01:45:38;;;;;;;15.80;2.30;;;6.50;99.90;;;;;;6243647;23;20004;-72
2022/02/15 01:48:04;;;;;;;14.77;3.20;;;6.50;99.90;;;;;;6243246;23;20755;-72
2022/02/15 01:50:29;;;;;;;13.32;3.50;;;6.40;99.90;;;;;;6243177;23;20075;-72
2022/02/15 01:52:55;;;;;;;12.07;1.92;;;6.40;99.90;;;;;;6242443;23;20521;-72
2022/02/15 01:55:21;;;;;;;11.13;2.15;;;6.40;99.90;;;;;;6243394;23;20011;-72
2022/02/15 01:57:47;;;;;;;12.32;2.75;;;6.40;99.90;;;;;;6242550;23;20084;-72
2022/02/15 02:00:16;;;;;;;11.55;1.98;;;6.30;99.90;;;;;;6242924;23;20071;-72
2022/02/15 02:02:42;;;;;;;12.32;1.98;;;6.30;99.90;;;;;;6243219;23;20082;-72
2022/02/15 02:07:54;;;;;;;12.00;2.10;;;6.20;99.90;;;;;;6243339;23;20515;-72
2022/02/15 02:10:21;;;;;;;15.50;2.00;;;6.20;99.90;;;;;;6242236;23;20007;-71
2022/02/15 02:12:47;;;;;;;11.73;2.10;;;6.20;99.90;;;;;;6242788;23;20000;-72
2022/02/15 02:15:19;;;;;;;12.75;1.77;;;6.20;99.90;;;;;;6243234;23;20075;-72
2022/02/15 02:17:45;;;;;;;8.95;1.77;;;6.20;99.90;;;;;;6242883;23;20074;-72
2022/02/15 02:20:12;;;;;;;14.38;2.10;;;6.20;99.90;;;;;;6242992;23;20081;-72
2022/02/15 02:22:37;;;;;;;12.45;2.08;;;6.20;99.90;;;;;;6243351;23;20000;-72
2022/02/15 02:25:04;;;;;;;18.95;2.67;;;6.20;99.90;;;;;;6243036;23;20106;-72
2022/02/15 02:27:33;;;;;;;14.43;2.30;;;6.10;99.90;;;;;;6242152;23;20023;-72
2022/02/15 02:29:59;;;;;;;14.80;1.55;;;6.10;99.90;;;;;;6215967;23;20106;-72
2022/02/15 02:32:27;;;;;;;8.05;1.60;;;6.10;99.90;;;;;;6242993;23;20066;-72
2022/02/15 02:34:55;;;;;;;12.25;1.73;;;6.10;99.90;;;;;;6243269;23;20004;-72
2022/02/15 02:37:21;;;;;;;17.98;2.28;;;6.00;99.90;;;;;;6242887;23;20087;-72
2022/02/15 02:39:52;;;;;;;10.32;1.52;;;6.00;99.90;;;;;;6242740;23;20007;-72
2022/02/15 02:42:19;;;;;;;;;;;6.00;99.90;;;;;;6243149;23;20000;-72
2022/02/15 02:44:46;;;;;;;14.77;2.03;;;6.00;99.90;;;;;;6242349;23;19978;-72
2022/02/15 02:47:12;;;;;;;10.90;2.00;;;5.90;99.90;;;;;;6243140;23;20502;-72
2022/02/15 02:49:37;;;;;;;12.02;2.05;;;5.90;99.90;;;;;;6242124;23;20008;-72
2022/02/15 02:52:04;;;;;;;14.57;2.15;;;5.90;99.90;;;;;;6242810;23;20091;-72
2022/02/15 02:54:30;;;;;;;14.10;1.65;;;5.90;99.90;;;;;;6242510;23;20027;-72
2022/02/15 02:56:56;;;;;;;9.00;1.80;;;5.90;99.90;;;;;;6242752;23;20004;-72
2022/02/15 02:59:22;;;;;;;11.35;1.88;;;5.90;99.90;;;;;;6242687;23;20434;-72
2022/02/15 03:01:48;;;;;;;15.40;1.70;;;5.90;99.90;;;;;;6242039;23;20035;-72
2022/02/15 03:04:15;;;;;;;9.77;1.55;;;6.00;99.90;;;;;;6243096;23;20031;-72
2022/02/15 03:06:40;;;;;;;12.88;1.80;;;6.00;99.90;;;;;;6242192;23;20000;-72
2022/02/15 03:09:06;;;;;;;17.67;3.05;;;5.90;99.90;;;;;;6242249;23;20012;-72
2022/02/15 03:11:32;;;;;;;10.80;1.70;;;5.90;99.90;;;;;;6242573;23;20084;-71
2022/02/15 03:13:59;;;;;;;13.07;1.95;;;5.90;99.90;;;;;;6242556;23;20039;-72
2022/02/15 03:16:25;;;;;;;11.35;2.25;;;5.90;99.90;;;;;;6242580;23;20011;-72
2022/02/15 03:18:51;;;;;;;13.88;2.05;;;5.90;99.90;;;;;;6242409;23;20456;-72
2022/02/15 03:21:17;;;;;;;11.85;1.70;;;5.90;99.90;;;;;;6242094;23;19996;-72
2022/02/15 03:23:44;;;;;;;18.45;1.90;;;5.90;99.90;;;;;;6241808;23;20000;-72
2022/02/15 03:26:10;;;;;;;8.80;1.80;;;5.90;99.90;;;;;;6242660;23;20000;-72
2022/02/15 03:28:36;;;;;;;14.20;1.92;;;5.90;99.90;;;;;;6242365;23;20437;-72
2022/02/15 03:31:03;;;;;;;12.82;1.90;;;5.80;99.90;;;;;;6242476;23;20000;-72
2022/02/15 03:33:29;;;;;;;8.57;1.50;;;5.80;99.90;;;;;;6242664;23;20030;-72
2022/02/15 03:35:55;;;;;;;16.65;2.13;;;5.80;99.90;;;;;;6242374;23;19996;-72
2022/02/15 03:38:21;;;;;;;17.67;1.90;;;5.80;99.90;;;;;;6241331;23;20008;-72
2022/02/15 03:43:31;;;;;;;10.40;1.80;;;5.70;99.90;;;;;;6242420;23;20016;-72
2022/02/15 03:45:57;;;;;;;12.98;1.67;;;5.70;99.90;;;;;;6242527;23;20004;-72
2022/02/15 03:48:23;;;;;;;12.68;1.90;;;5.70;99.90;;;;;;6242581;23;20004;-72
2022/02/15 03:50:49;;;;;;;10.70;1.80;;;5.70;99.90;;;;;;6242264;23;20459;-72
2022/02/15 03:53:15;;;;;;;12.95;2.15;;;5.70;99.90;;;;;;6241410;23;20008;-72
2022/02/15 03:55:42;;;;;;;11.43;1.90;;;5.70;99.90;;;;;;6243863;23;20012;-72
2022/02/15 03:58:08;;;;;;;9.75;1.60;;;5.60;99.90;;;;;;6244371;23;20497;-72
2022/02/15 04:00:34;;;;;;;14.85;2.00;;;5.60;99.90;;;;;;6243856;23;20028;-72
2022/02/15 04:03:00;;;;;;;10.43;1.65;;;5.60;99.90;;;;;;6244314;23;20006;-72
2022/02/15 04:05:26;;;;;;;10.07;1.77;;;5.60;99.90;;;;;;6244190;23;20000;-72
2022/02/15 04:07:52;;;;;;;13.27;3.25;;;5.50;99.90;;;;;;6243751;23;20810;-72
2022/02/15 04:10:18;;;;;;;9.85;2.13;;;5.50;99.90;;;;;;6244269;23;20086;-72
2022/02/15 04:12:44;;;;;;;11.70;2.70;;;5.50;99.90;;;;;;6243864;23;20000;-72
2022/02/15 04:15:11;;;;;;;11.27;2.75;;;5.50;99.90;;;;;;6244120;23;20000;-72
2022/02/15 04:17:37;;;;;;;11.40;2.97;;;5.50;99.90;;;;;;6244137;23;19996;-72
2022/02/15 04:20:04;;;;;;;10.35;2.88;;;5.50;99.90;;;;;;6244060;23;20027;-72
2022/02/15 04:22:29;;;;;;;12.32;2.50;;;5.40;99.90;;;;;;6243686;23;20019;-72
2022/02/15 04:24:55;;;;;;;14.13;1.90;;;5.40;99.90;;;;;;6244583;23;20031;-72
2022/02/15 04:27:22;;;;;;;8.20;1.48;;;5.40;99.90;;;;;;6244200;23;20003;-72
2022/02/15 04:29:48;;;;;;;10.60;1.50;;;5.40;99.90;;;;;;6243798;23;20091;-72
2022/02/15 04:32:14;;;;;;;7.03;1.60;;;5.40;99.90;;;;;;6243578;23;20326;-72
2022/02/15 04:34:41;;;;;;;13.60;1.95;;;5.40;99.90;;;;;;6243763;23;20011;-72
2022/02/15 04:37:07;;;;;;;11.73;1.98;;;5.50;99.90;;;;;;6243625;23;20000;-72
2022/02/15 04:39:33;;;;;;;10.27;1.98;;;5.40;99.90;;;;;;6244284;23;19996;-72
2022/02/15 04:41:59;;;;;;;7.60;1.48;;;5.40;99.90;;;;;;6243903;23;20016;-72
2022/02/15 04:44:24;;;;;;;11.27;1.63;;;5.40;99.90;;;;;;6243909;23;20079;-72
2022/02/15 04:46:50;;;;;;;13.13;1.80;;;5.40;99.90;;;;;;6244020;23;20089;-72
2022/02/15 04:49:16;;;;;;;10.70;1.63;;;5.50;99.90;;;;;;6243799;23;20086;-72
2022/02/15 04:51:42;;;;;;;9.63;1.45;;;5.50;99.90;;;;;;6243417;23;20011;-72
2022/02/15 04:54:08;;;;;;;10.05;1.73;;;5.50;99.90;;;;;;6243368;23;20078;-72
2022/02/15 04:56:33;;;;;;;10.88;1.65;;;5.60;99.90;;;;;;6243809;23;19996;-72
2022/02/15 04:58:59;;;;;;;10.43;1.75;;;5.60;99.90;;;;;;6243987;23;20008;-72
2022/02/15 05:01:25;;;;;;;13.57;2.22;;;5.60;99.90;;;;;;6243884;23;20043;-72
2022/02/15 05:03:51;;;;;;;9.57;2.08;;;5.60;99.90;;;;;;6243656;23;20319;-72
2022/02/15 05:06:16;;;;;;;13.48;1.60;;;5.60;99.90;;;;;;6243285;23;20000;-72
2022/02/15 05:08:42;;;;;;;8.98;1.70;;;5.60;99.90;;;;;;6243018;23;20437;-72
2022/02/15 05:11:08;;;;;;;8.10;1.70;;;5.60;99.90;;;;;;6243517;23;20000;-72
2022/02/15 05:13:34;;;;;;;7.78;1.50;;;5.60;99.90;;;;;;6243483;23;20008;-72
2022/02/15 05:16:00;;;;;;;13.48;2.05;;;5.60;99.90;;;;;;6243688;23;20010;-72
2022/02/15 05:18:27;;;;;;;10.50;1.52;;;5.60;99.90;;;;;;6243498;23;20000;-72
2022/02/15 05:20:53;;;;;;;8.98;1.60;;;5.60;99.90;;;;;;6243054;23;20019;-72
2022/02/15 05:23:19;;;;;;;7.60;1.30;;;5.60;99.90;;;;;;6243966;23;20144;-72
2022/02/15 05:25:44;;;;;;;12.43;1.60;;;5.60;99.90;;;;;;6243386;23;20014;-72
2022/02/15 05:28:10;;;;;;;6.47;1.20;;;5.50;99.90;;;;;;6243309;23;20396;-72
2022/02/15 05:30:36;;;;;;;8.32;1.67;;;5.50;99.90;;;;;;6243301;23;20026;-72
2022/02/15 05:33:02;;;;;;;11.88;1.70;;;5.50;99.90;;;;;;6243274;23;19997;-72
2022/02/15 05:35:28;;;;;;;8.93;1.60;;;5.40;99.90;;;;;;6242857;23;20004;-72
2022/02/15 05:37:54;;;;;;;9.60;1.55;;;5.40;99.90;;;;;;6243429;23;20005;-72
2022/02/15 05:40:20;;;;;;;7.97;1.40;;;5.30;99.90;;;;;;6243296;23;20000;-72
2022/02/15 05:42:46;;;;;;;12.50;1.92;;;5.30;99.90;;;;;;6242697;23;20019;-72
2022/02/15 05:45:12;;;;;;;7.85;1.80;;;5.30;99.90;;;;;;6242745;23;20008;-75
2022/02/15 05:47:39;;;;;;;7.03;1.40;;;5.20;99.90;;;;;;6242024;23;20011;-72
2022/02/15 05:52:50;;;;;;;12.32;1.80;;;5.20;99.90;;;;;;6243063;23;20447;-72
2022/02/15 05:55:16;;;;;;;13.15;2.00;;;5.10;99.90;;;;;;6243117;23;20067;-72
2022/02/15 05:57:42;;;;;;;12.43;2.20;;;5.10;99.90;;;;;;6242579;23;20031;-72
2022/02/15 06:00:10;;;;;;;13.52;2.08;;;5.10;99.90;;;;;;6242491;23;20498;-72
2022/02/15 06:02:36;;;;;;;10.35;2.05;;;5.10;99.90;;;;;;6243022;23;20015;-71
2022/02/15 06:05:02;;;;;;;13.10;2.28;;;5.10;99.90;;;;;;6242560;23;20001;-80
2022/02/15 06:07:28;;;;;;;15.02;2.20;;;5.10;99.90;;;;;;6242389;23;20071;-71
2022/02/15 06:09:54;;;;;;;11.55;2.25;;;5.10;99.90;;;;;;6242441;23;20043;-70
2022/02/15 06:12:19;;;;;;;14.27;2.35;;;5.20;99.90;;;;;;6242847;23;20034;-71
2022/02/15 06:14:47;;;;;;;13.45;2.20;;;5.20;99.90;;;;;;6242341;23;20011;-72
2022/02/15 06:17:12;;;;;;;12.18;2.20;;;5.30;99.90;;;;;;6242632;23;20074;-72
2022/02/15 06:19:38;;;;;;;9.20;2.10;;;5.30;99.90;;;;;;6241993;23;20051;-71
2022/02/15 06:22:04;;;;;;;9.43;2.08;;;5.40;99.90;;;;;;6242328;23;20007;-73
2022/02/15 06:24:30;;;;;;;11.88;2.50;;;5.40;99.90;;;;;;6242281;23;20000;-73
2022/02/15 06:27:01;;;;;;;10.55;2.30;;;5.50;99.90;;;;;;6241765;23;20015;-71
2022/02/15 06:29:28;;;;;;;13.30;2.00;;;5.50;99.90;;;;;;6242166;23;20035;-72
2022/02/15 06:31:54;;;;;;;17.00;2.28;;;5.50;99.90;;;;;;6241875;23;20024;-72
2022/02/15 06:34:20;;;;;;;21.30;3.08;;;5.60;99.90;;;;;;6242099;23;20024;-72
2022/02/15 06:36:46;;;;;;;16.95;2.42;;;5.60;99.90;;;;;;6242603;23;20023;-72
2022/02/15 17:18:58;;;;;;;15.65;2.63;;;11.50;99.90;;;;;;5143562;22;22548;-75
2022/02/15 17:21:25;;;;;;;20.70;6.13;;;11.50;99.90;;;;;;6181916;23;20354;-77
2022/02/15 17:23:52;;;;;;;12.20;2.10;;;11.40;99.90;;;;;;6182943;23;20101;-74
2022/02/15 17:26:18;;;;;;;15.93;3.70;;;11.40;99.90;;;;;;6180743;23;20013;-79
2022/02/15 17:28:44;;;;;;;11.25;2.60;;;11.40;99.90;;;;;;6182867;23;20023;-78
2022/02/15 17:31:10;;;;;;;11.50;2.13;;;11.40;99.90;;;;;;6182680;23;20378;-80
2022/02/15 17:33:36;;;;;;;8.95;1.60;;;11.40;99.90;;;;;;6182230;23;20008;-79
2022/02/15 17:36:02;;;;;;;9.50;1.70;;;11.40;99.90;;;;;;6182786;23;19997;-77
2022/02/15 17:38:28;;;;;;;9.30;2.53;;;11.40;99.90;;;;;;6182865;23;20009;-79
2022/02/15 17:40:54;;;;;;;13.65;1.70;;;11.40;99.90;;;;;;6182934;23;20009;-84
2022/02/15 17:43:20;;;;;;;11.40;2.08;;;11.30;99.90;;;;;;6181442;23;20337;-79
2022/02/15 17:45:46;;;;;;;10.25;1.70;;;11.30;99.90;;;;;;6182407;23;20024;-79
2022/02/15 17:48:12;;;;;;;10.05;1.45;;;11.30;99.90;;;;;;6181846;23;20008;-77
2022/02/15 17:50:38;;;;;;;8.93;1.98;;;11.30;99.90;;;;;;6156172;23;20353;-77
2022/02/15 17:53:08;;;;;;;11.95;1.83;;;11.30;99.90;;;;;;6182151;23;20001;-77
2022/02/15 17:55:35;;;;;;;9.38;2.10;;;11.30;99.90;;;;;;6182422;23;20005;-79
2022/02/15 17:58:01;;;;;;;12.38;2.00;;;11.30;99.90;;;;;;6182282;23;20005;-79
2022/02/15 18:00:27;;;;;;;8.57;1.55;;;11.20;99.90;;;;;;6182455;23;20072;-80
2022/02/15 18:02:53;;;;;;;9.20;1.70;;;11.20;99.90;;;;;;6181033;23;20008;-80
2022/02/15 18:05:22;;;;;;;8.95;2.40;;;11.30;99.90;;;;;;6182613;23;20116;-79
2022/02/15 18:07:49;;;;;;;11.10;1.90;;;11.20;99.90;;;;;;6181855;23;20453;-80
2022/02/15 18:10:17;;;;;;;9.60;1.60;;;11.30;99.90;;;;;;6182583;23;20009;-78
2022/02/15 18:12:43;;;;;;;7.13;1.60;;;11.20;99.90;;;;;;6181926;23;20001;-78
2022/02/15 18:15:10;;;;;;;7.40;1.40;;;11.20;99.90;;;;;;6182177;23;20684;-79
2022/02/15 18:17:37;;;;;;;8.13;1.70;;;11.20;99.90;;;;;;6182374;23;20031;-79
2022/02/15 18:20:03;;;;;;;7.88;2.10;;;11.20;99.90;;;;;;6181629;23;20028;-78
2022/02/15 18:22:29;;;;;;;6.57;1.63;;;11.20;99.90;;;;;;6182177;23;20008;-79
2022/02/15 18:24:55;;;;;;;7.10;1.77;;;11.20;99.90;;;;;;6182811;23;20393;-79
2022/02/15 18:27:22;;;;;;;7.72;1.70;;;11.20;99.90;;;;;;6182020;23;20073;-79
2022/02/15 18:29:48;;;;;;;6.93;1.70;;;11.30;99.90;;;;;;6182057;23;20009;-79
2022/02/15 18:32:15;;;;;;;12.85;2.00;;;11.30;99.90;;;;;;6182009;23;20446;-79
2022/02/15 18:34:44;;;;;;;6.22;1.52;;;11.30;99.90;;;;;;6182757;23;20456;-80
2022/02/15 18:37:16;;;;;;;6.30;1.65;;;11.30;99.90;;;;;;6181168;23;20068;-79
2022/02/15 18:39:43;;;;;;;7.22;1.52;;;11.30;99.90;;;;;;6182419;23;20012;-79
2022/02/15 18:42:10;;;;;;;8.32;1.75;;;11.30;99.90;;;;;;6182485;23;20020;-79
2022/02/15 18:44:36;;;;;;;9.13;1.77;;;11.30;99.90;;;;;;6182187;23;20008;-79
2022/02/15 18:47:03;;;;;;;6.28;1.30;;;11.30;99.90;;;;;;6181684;23;19997;-79
2022/02/15 18:49:30;;;;;;;8.10;1.88;;;11.30;99.90;;;;;;6182167;23;20013;-80
2022/02/15 18:51:55;;;;;;;5.53;1.38;;;11.30;99.90;;;;;;6181813;23;20012;-79
2022/02/15 18:54:23;;;;;;;4.47;1.50;;;11.30;99.90;;;;;;6181721;23;20001;-79
2022/02/15 18:56:49;;;;;;;5.43;1.58;;;11.30;99.90;;;;;;6182101;23;20001;-79
2022/02/15 18:59:16;;;;;;;4.50;1.40;;;11.30;99.90;;;;;;6181305;23;20005;-80
2022/02/15 19:01:42;;;;;;;5.97;1.80;;;11.30;99.90;;;;;;6181722;23;20438;-80
2022/02/15 19:04:08;;;;;;;5.75;1.35;;;11.30;99.90;;;;;;6180358;23;20038;-79
2022/02/15 19:06:34;;;;;;;5.72;1.60;;;11.40;99.90;;;;;;6181698;23;20459;-79
2022/02/15 19:09:00;;;;;;;10.80;4.47;;;11.40;99.90;;;;;;6181714;23;20399;-79
2022/02/15 19:11:27;;;;;;;4.40;1.30;;;11.30;99.90;;;;;;6181679;23;20377;-79
2022/02/15 19:13:52;;;;;;;7.97;2.30;;;11.40;99.90;;;;;;6181751;23;20437;-80
2022/02/15 19:16:18;;;;;;;4.63;1.30;;;11.40;99.90;;;;;;6181412;23;20001;-80
2022/02/15 19:18:44;;;;;;;6.03;1.40;;;11.40;99.90;;;;;;6181718;23;20012;-78
2022/02/15 19:21:11;;;;;;;7.68;1.33;;;11.40;99.90;;;;;;6205537;23;20020;-79
2022/02/15 19:23:37;;;;;;;7.05;1.60;;;11.40;99.90;;;;;;6212060;23;20024;-79
2022/02/15 19:26:05;;;;;;;10.70;2.88;;;11.40;99.90;;;;;;6211681;23;20005;-80
2022/02/15 19:28:31;;;;;;;10.73;1.90;;;11.40;99.90;;;;;;6211207;23;20009;-79
2022/02/15 19:30:57;;;;;;;7.28;1.70;;;11.40;99.90;;;;;;6211571;23;20047;-80
2022/02/15 19:33:23;;;;;;;4.93;1.30;;;11.40;99.90;;;;;;6211877;23;20053;-77
2022/02/15 19:35:50;;;;;;;7.25;1.80;;;11.40;99.90;;;;;;6211056;23;20012;-77
2022/02/15 19:38:16;;;;;;;6.43;1.65;;;11.40;99.90;;;;;;6211430;23;20004;-77
2022/02/15 19:40:41;;;;;;;9.48;2.15;;;11.40;99.90;;;;;;6211158;23;20008;-77
2022/02/15 19:43:09;;;;;;;5.50;1.70;;;11.40;99.90;;;;;;6211695;23;20028;-77
2022/02/15 19:45:38;;;;;;;5.97;1.60;;;11.40;99.90;;;;;;6211166;23;20008;-77
2022/02/15 19:48:05;;;;;;;5.40;1.42;;;11.40;99.90;;;;;;6210239;23;20005;-76
2022/02/15 19:50:30;;;;;;;5.88;1.63;;;11.40;99.90;;;;;;6210835;23;20013;-78
2022/02/15 19:52:56;;;;;;;5.07;1.40;;;11.40;99.90;;;;;;6212153;23;20029;-77
2022/02/15 19:55:22;;;;;;;8.02;2.42;;;11.40;99.90;;;;;;6211232;23;20004;-77
2022/02/15 19:57:48;;;;;;;5.40;1.55;;;11.40;99.90;;;;;;6211604;23;20011;-78
2022/02/15 20:00:14;;;;;;;7.28;1.80;;;11.40;99.90;;;;;;6211345;23;20417;-77
2022/02/15 20:02:40;;;;;;;5.40;1.40;;;11.40;99.90;;;;;;6211946;23;20000;-77
2022/02/15 20:05:07;;;;;;;6.25;1.83;;;11.50;99.90;;;;;;6208082;23;20013;-77
2022/02/15 20:07:33;;;;;;;4.82;1.58;;;11.50;99.90;;;;;;6209562;23;20067;-77
2022/02/15 20:09:59;;;;;;;5.05;1.90;;;11.50;99.90;;;;;;6209203;23;20016;-78
2022/02/15 20:12:25;;;;;;;7.10;1.80;;;11.50;99.90;;;;;;6211280;23;20005;-77
2022/02/15 20:14:50;;;;;;;6.43;1.52;;;11.50;99.90;;;;;;6210989;23;20008;-77
2022/02/15 20:17:16;;;;;;;7.13;1.40;;;11.50;99.90;;;;;;6211593;23;20344;-77
2022/02/15 20:19:42;;;;;;;8.30;1.77;;;11.50;99.90;;;;;;6201522;23;20016;-77
2022/02/15 20:22:09;;;;;;;5.30;1.60;;;11.50;99.90;;;;;;6180964;23;20012;-77
2022/02/15 20:24:35;;;;;;;7.40;1.92;;;11.50;99.90;;;;;;6181405;23;20008;-77
2022/02/15 20:27:02;;;;;;;6.20;1.60;;;11.50;99.90;;;;;;6180726;23;20008;-77
2022/02/15 20:29:28;;;;;;;6.70;1.70;;;11.50;99.90;;;;;;6179783;23;20017;-77
2022/02/15 20:31:53;;;;;;;6.93;1.85;;;11.60;99.90;;;;;;6181003;23;20338;-76
2022/02/15 20:34:21;;;;;;;5.88;1.70;;;11.50;99.90;;;;;;6181002;23;20326;-77
2022/02/15 20:36:48;;;;;;;5.18;1.52;;;11.50;99.90;;;;;;6181161;23;20027;-76
2022/02/15 20:39:14;;;;;;;6.03;2.13;;;11.50;99.90;;;;;;6183167;23;20076;-77
2022/02/15 20:41:40;;;;;;;7.38;1.90;;;11.60;99.90;;;;;;6182721;23;20084;-77
2022/02/15 20:44:06;;;;;;;6.32;2.15;;;11.60;99.90;;;;;;6182593;23;20462;-77
2022/02/15 20:46:32;;;;;;;13.52;2.30;;;11.60;99.90;;;;;;6183367;23;20035;-77
2022/02/15 20:49:00;;;;;;;9.95;2.20;;;11.60;99.90;;;;;;6183171;23;20013;-77
2022/02/15 20:51:27;;;;;;;9.40;2.38;;;11.60;99.90;;;;;;6183277;23;20064;-77
2022/02/15 20:53:53;;;;;;;12.77;2.53;;;11.60;99.90;;;;;;6183066;23;20441;-77
2022/02/15 20:56:19;;;;;;;9.02;2.20;;;11.60;99.90;;;;;;6183249;23;20005;-77
2022/02/15 20:58:46;;;;;;;12.38;2.60;;;11.60;99.90;;;;;;6181832;23;20631;-78
2022/02/15 21:01:11;;;;;;;11.20;2.65;;;11.60;99.90;;;;;;6182637;23;20005;-77
2022/02/15 21:03:37;;;;;;;11.63;2.22;;;11.60;99.90;;;;;;6183559;23;19997;-77
2022/02/15 21:06:03;;;;;;;9.82;2.63;;;11.60;99.90;;;;;;6183059;23;20009;-78
2022/02/15 21:08:29;;;;;;;8.35;2.00;;;11.60;99.90;;;;;;6183266;23;20385;-77
2022/02/15 21:10:56;;;;;;;13.52;2.08;;;11.60;99.90;;;;;;6182996;23;20079;-76
2022/02/15 21:13:23;;;;;;;8.90;2.05;;;11.60;99.90;;;;;;6182683;23;20079;-77
2022/02/15 21:15:49;;;;;;;9.65;2.00;;;11.60;99.90;;;;;;6182517;23;20005;-76
2022/02/15 21:18:14;;;;;;;8.75;1.95;;;11.70;99.90;;;;;;6182995;23;20001;-78
2022/02/15 21:20:42;;;;;;;9.80;2.20;;;11.70;99.90;;;;;;6182507;23;20035;-78
2022/02/15 21:23:08;;;;;;;8.10;2.10;;;11.70;99.90;;;;;;6182907;23;20008;-77
2022/02/15 21:25:34;;;;;;;8.73;2.03;;;11.70;99.90;;;;;;6182685;23;20037;-78
2022/02/15 21:28:01;;;;;;;9.45;1.90;;;11.70;99.90;;;;;;6183294;23;20796;-77
2022/02/15 21:30:27;;;;;;;11.77;1.83;;;11.70;99.90;;;;;;6182155;23;20013;-78
2022/02/15 21:32:53;;;;;;;7.32;1.90;;;11.70;99.90;;;;;;6181896;23;20007;-77
2022/02/15 21:35:22;;;;;;;7.93;2.00;;;11.70;99.90;;;;;;6182299;23;20009;-78
2022/02/15 21:37:49;;;;;;;6.70;1.90;;;11.70;99.90;;;;;;6182599;23;20071;-78
2022/02/15 21:40:15;;;;;;;5.97;1.75;;;11.70;99.90;;;;;;6182284;23;20027;-78
2022/02/15 21:42:41;;;;;;;8.57;2.88;;;11.70;99.90;;;;;;6182492;23;20466;-78
2022/02/15 21:45:08;;;;;;;5.47;1.70;;;11.70;99.90;;;;;;6182851;23;20012;-77
2022/02/15 21:47:37;;;;;;;6.32;1.80;;;11.70;99.90;;;;;;6182301;23;20088;-78
2022/02/15 21:50:04;;;;;;;6.72;1.83;;;11.70;99.90;;;;;;6182759;23;20023;-78
2022/02/15 21:52:31;;;;;;;6.45;1.80;;;11.80;99.90;;;;;;6182343;23;19997;-78
2022/02/15 21:54:57;;;;;;;8.30;2.15;;;11.80;99.90;;;;;;6181835;23;20009;-77
2022/02/15 21:57:26;;;;;;;3.42;1.40;;;11.80;99.90;;;;;;6183168;23;20005;-78
2022/02/15 21:59:52;;;;;;;7.80;2.40;;;11.80;99.90;;;;;;6182329;23;20069;-78
2022/02/15 22:02:20;;;;;;;9.52;2.92;;;11.80;99.90;;;;;;6182660;23;19997;-77
2022/02/15 22:04:52;;;;;;;3.85;1.10;;;11.80;99.90;;;;;;6182305;23;20009;-78
2022/02/15 22:07:19;;;;;;;5.35;1.42;;;11.80;99.90;;;;;;6182129;23;20015;-79
2022/02/15 22:09:45;;;;;;;2.58;1.10;;;11.80;99.90;;;;;;6181843;23;20450;-78
2022/02/15 22:12:13;;;;;;;5.45;1.70;;;11.80;99.90;;;;;;6181819;23;20346;-78
2022/02/15 22:14:41;;;;;;;4.75;1.67;;;11.80;99.90;;;;;;6182198;23;20012;-78
2022/02/15 22:17:08;;;;;;;5.07;1.40;;;11.80;99.90;;;;;;6182701;23;19998;-77
2022/02/15 22:19:34;;;;;;;4.38;1.30;;;11.90;99.90;;;;;;6182226;23;20379;-78
2022/02/15 22:22:00;;;;;;;3.42;1.20;;;11.90;99.90;;;;;;6182217;23;20009;-78
2022/02/15 22:24:27;;;;;;;5.22;1.00;;;11.80;99.90;;;;;;6182034;23;20009;-78
2022/02/15 22:26:53;;;;;;;3.45;1.15;;;11.90;99.90;;;;;;6182482;23;20505;-78
2022/02/15 22:29:18;;;;;;;3.95;1.17;;;11.90;99.90;;;;;;6181334;23;20013;-77
2022/02/15 22:31:45;;;;;;;4.70;1.20;;;11.90;99.90;;;;;;6182127;23;20035;-78
2022/02/15 22:34:10;;;;;;;4.95;1.10;;;11.90;99.90;;;;;;6182274;23;20013;-77
2022/02/15 22:36:36;;;;;;;5.00;1.10;;;11.90;99.90;;;;;;6182145;23;20319;-78
2022/02/15 22:39:03;;;;;;;3.60;1.33;;;11.90;99.90;;;;;;6182075;23;20057;-77
2022/02/15 22:41:28;;;;;;;3.78;1.00;;;12.00;99.90;;;;;;6181707;23;20009;-77
2022/02/15 22:43:54;;;;;;;3.40;1.10;;;12.00;99.90;;;;;;6182091;23;20059;-78
2022/02/15 22:46:20;;;;;;;5.28;1.15;;;12.00;99.90;;;;;;6181344;23;20005;-78
2022/02/15 22:49:34;;;;;;;3.72;1.10;;;12.00;99.90;;;;;;6182140;23;20060;-77
2022/02/15 22:51:32;;;;;;;5.20;1.10;;;12.10;99.90;;;;;;6182193;23;20037;-77
2022/02/15 22:53:59;;;;;;;2.25;0.80;;;12.00;99.90;;;;;;6181849;23;20386;-77
2022/02/15 22:56:26;;;;;;;4.00;1.00;;;12.10;99.90;;;;;;6181981;23;20412;-78
2022/02/15 22:58:52;;;;;;;4.95;0.98;;;12.10;99.90;;;;;;6155384;23;20005;-77
2022/02/15 23:01:18;;;;;;;3.50;1.00;;;12.10;99.90;;;;;;6181555;23;20005;-77
2022/02/15 23:03:44;;;;;;;4.22;1.05;;;12.10;99.90;;;;;;6181929;23;20079;-77
2022/02/15 23:19:51;;;;;;;4.57;0.85;;;12.20;99.90;;;;;;6181751;23;20032;-77
2022/02/15 23:22:17;;;;;;;3.55;0.85;;;12.20;99.90;;;;;;6181346;23;20001;-77
2022/02/15 23:24:43;;;;;;;4.72;0.70;;;12.20;99.90;;;;;;6181697;23;20051;-77
2022/02/15 23:27:08;;;;;;;4.00;1.23;;;12.20;99.90;;;;;;6182141;23;20009;-77
2022/02/15 23:29:34;;;;;;;3.95;0.90;;;12.30;99.90;;;;;;6182027;23;20021;-77
2022/02/15 23:32:00;;;;;;;8.20;1.35;;;12.30;99.90;;;;;;6181695;23;20050;-77
2022/02/15 23:34:26;;;;;;;2.65;0.63;;;12.30;99.90;;;;;;6181711;23;20009;-77
2022/02/15 23:36:51;;;;;;;3.58;0.70;;;12.30;99.90;;;;;;6181375;23;20002;-77
2022/02/15 23:39:18;;;;;;;3.95;0.70;;;12.30;99.90;;;;;;6181776;23;20001;-77
2022/02/15 23:41:44;;;;;;;3.45;0.70;;;12.30;99.90;;;;;;6154376;23;20323;-77
2022/02/15 23:44:09;;;;;;;3.38;0.75;;;12.30;99.90;;;;;;6181349;23;20013;-77